Time;durP1;ratioP1;P1;durP2;ratioP2;P2;SDS_P1;SDS_P2;PMS_P1;PMS_P2;Temp;Humidity;BMP_temperature;BMP_pressure;BME280_temperature;BME280_humidity;BME280_pressure;Samples;Min_cycle;Max_cycle;Signal;HPM_P1;HPM_P2
2022/05/16 00:00:51;;;;;;;3.75;2.55;;;;;;;17.70;49.14;100017.38;4376579;32;34130;-70
2022/05/16 00:03:19;;;;;;;3.17;2.28;;;;;;;17.43;50.27;100018.72;4376929;32;33267;-71
2022/05/16 00:05:47;;;;;;;2.92;2.20;;;;;;;17.86;48.17;100018.91;4376494;32;33764;-74
2022/05/16 00:08:14;;;;;;;2.78;1.80;;;;;;;17.78;48.60;100023.03;4376783;32;35209;-72
2022/05/16 00:10:42;;;;;;;3.53;2.30;;;;;;;17.40;49.52;100019.28;4376693;32;33964;-70
2022/05/16 00:13:09;;;;;;;7.53;2.28;;;;;;;17.22;49.94;100018.06;4376692;32;33512;-68
2022/05/16 00:15:37;;;;;;;3.30;2.30;;;;;;;17.40;49.74;100024.78;4376760;32;33992;-67
2022/05/16 00:18:05;;;;;;;3.80;2.40;;;;;;;17.70;49.20;100025.59;4376630;32;34367;-71
2022/05/16 00:20:33;;;;;;;4.03;2.50;;;;;;;17.62;48.98;100024.28;4376286;32;34509;-68
2022/05/16 00:23:01;;;;;;;5.35;2.25;;;;;;;17.62;49.82;100016.91;4376733;32;33423;-67
2022/05/16 00:25:30;;;;;;;6.45;2.50;;;;;;;17.79;48.40;100023.84;4376618;32;34871;-68
2022/05/16 00:27:57;;;;;;;3.30;2.47;;;;;;;17.72;48.41;100013.22;4376254;32;34310;-72
2022/05/16 00:30:25;;;;;;;3.72;2.28;;;;;;;17.33;49.13;100019.63;4376565;32;33446;-72
2022/05/16 00:32:54;;;;;;;2.97;2.28;;;;;;;17.49;49.33;100025.78;4376588;32;34142;-70
2022/05/16 00:35:22;;;;;;;3.40;2.20;;;;;;;17.07;50.65;100018.19;4376472;32;34069;-68
2022/05/16 00:37:50;;;;;;;4.00;2.30;;;;;;;17.15;50.59;100015.66;4376490;32;35134;-68
2022/05/16 00:40:19;;;;;;;2.90;2.60;;;;;;;17.46;49.15;100022.81;4375881;32;33951;-69
2022/05/16 00:42:46;;;;;;;4.50;2.20;;;;;;;17.50;49.76;100023.87;4362998;32;33314;-70
2022/05/16 00:45:16;;;;;;;6.62;2.42;;;;;;;17.73;49.03;100019.53;4376331;32;33805;-67
2022/05/16 00:47:45;;;;;;;3.78;2.53;;;;;;;17.32;50.19;100020.75;4376129;32;34234;-67
2022/05/16 00:50:12;;;;;;;4.85;2.50;;;;;;;17.01;50.94;100029.19;4376320;32;34502;-67
2022/05/16 00:52:44;;;;;;;4.22;2.40;;;;;;;17.11;50.96;100028.28;4376514;32;33854;-68
2022/05/16 00:55:16;;;;;;;3.90;2.35;;;;;;;17.33;50.07;100021.56;4376112;32;34381;-68
2022/05/16 00:57:48;;;;;;;3.17;2.25;;;;;;;17.42;50.12;100020.63;4376136;32;34174;-68
2022/05/16 01:00:18;;;;;;;4.03;2.60;;;;;;;17.53;49.55;100018.62;4362570;32;34047;-67
2022/05/16 01:05:36;;;;;;;3.33;2.30;;;;;;;17.16;51.31;100025.50;4365020;32;33888;-67
2022/05/16 01:08:09;;;;;;;5.10;2.25;;;;;;;16.95;51.33;100033.06;4376102;32;34867;-67
2022/05/16 01:10:36;;;;;;;3.90;2.80;;;;;;;16.92;51.95;100032.81;4362705;32;34631;-68
2022/05/16 01:13:04;;;;;;;4.12;2.75;;;;;;;16.66;52.41;100037.59;4375952;32;33994;-68
2022/05/16 01:15:38;;;;;;;3.83;2.55;;;;;;;16.18;53.57;100047.09;4375843;32;34868;-67
2022/05/16 01:18:08;;;;;;;2.92;2.20;;;;;;;15.82;54.97;100043.63;4375976;32;35061;-67
2022/05/16 01:20:41;;;;;;;5.15;2.33;;;;;;;16.44;53.92;100046.22;4375614;32;33995;-68
2022/05/16 01:23:12;;;;;;;3.40;2.40;;;;;;;16.10;54.05;100039.47;4376189;32;34037;-67
2022/05/16 01:25:40;;;;;;;3.70;2.50;;;;;;;16.27;53.29;100041.06;4362495;32;34734;-67
2022/05/16 01:28:08;;;;;;;4.55;2.60;;;;;;;16.75;52.30;100041.38;4375670;32;34394;-67
2022/05/16 01:30:48;;;;;;;4.22;2.47;;;;;;;16.48;52.42;100042.62;4375572;32;34908;-67
2022/05/16 01:33:20;;;;;;;5.03;2.75;;;;;;;16.57;52.52;100032.72;4375653;32;33263;-67
2022/05/16 01:35:47;;;;;;;3.30;2.50;;;;;;;16.13;53.70;100043.56;4375757;32;33945;-67
2022/05/16 01:38:19;;;;;;;5.20;3.00;;;;;;;16.15;51.30;100039.44;4375589;32;35076;-68
2022/05/16 01:40:51;;;;;;;3.33;2.37;;;;;;;16.15;51.76;100047.66;4375442;32;33949;-66
2022/05/16 01:43:25;;;;;;;3.20;2.40;;;;;;;16.02;51.58;100045.50;4375939;32;34230;-67
2022/05/16 01:45:52;;;;;;;4.10;2.90;;;;;;;16.02;51.63;100050.97;4369490;32;33823;-66
2022/05/16 01:48:20;;;;;;;6.60;2.95;;;;;;;16.49;50.52;100054.37;4375649;32;34040;-67
2022/05/16 01:50:49;;;;;;;3.83;2.70;;;;;;;16.77;49.79;100047.41;4375335;32;33698;-67
2022/05/16 01:53:18;;;;;;;4.43;2.40;;;;;;;16.83;50.60;100056.44;4376250;32;33172;-67
2022/05/16 01:55:46;;;;;;;3.65;2.35;;;;;;;16.74;49.84;100053.44;4377709;32;33636;-67
2022/05/16 01:58:13;;;;;;;3.30;2.58;;;;;;;17.39;48.80;100051.38;4377483;32;34400;-67
2022/05/16 02:00:41;;;;;;;6.07;2.78;;;;;;;17.17;48.90;100051.00;4377764;32;34467;-67
2022/05/16 02:03:09;;;;;;;3.53;2.83;;;;;;;17.35;49.03;100055.81;4377981;32;33219;-67
2022/05/16 02:05:37;;;;;;;4.62;2.42;;;;;;;17.31;48.88;100052.00;4377541;32;35043;-67
2022/05/16 02:08:05;;;;;;;3.33;2.55;;;;;;;17.52;48.66;100054.59;4377458;32;35083;-66
2022/05/16 02:10:33;;;;;;;3.42;2.47;;;;;;;17.47;48.87;100060.09;4377394;32;34348;-67
2022/05/16 02:13:03;;;;;;;5.45;2.60;;;;;;;17.57;48.81;100060.84;4377443;32;33032;-66
2022/05/16 02:15:33;;;;;;;4.35;2.60;;;;;;;17.33;49.37;100058.00;4377497;32;33943;-68
2022/05/16 02:18:00;;;;;;;4.05;2.53;;;;;;;17.52;49.33;100051.84;4377260;32;34905;-67
2022/05/16 02:20:28;;;;;;;3.70;2.55;;;;;;;17.44;49.57;100058.75;4377064;32;34585;-67
2022/05/16 02:25:45;;;;;;;5.32;2.67;;;;;;;17.47;49.92;100063.66;4377221;32;34763;-67
2022/05/16 02:28:16;;;;;;;3.45;2.50;;;;;;;17.55;49.87;100059.47;4363649;32;34383;-69
2022/05/16 02:30:52;;;;;;;4.43;2.67;;;;;;;17.30;50.78;100061.34;4377122;32;34037;-67
2022/05/16 02:33:20;;;;;;;4.18;2.60;;;;;;;17.06;51.36;100072.19;4377498;32;33870;-67
2022/05/16 02:35:47;;;;;;;6.12;2.80;;;;;;;16.57;52.48;100070.25;4377145;32;34867;-67
2022/05/16 02:38:16;;;;;;;4.78;2.92;;;;;;;17.05;51.80;100070.56;4377091;32;34080;-67
2022/05/16 02:40:44;;;;;;;4.60;2.70;;;;;;;16.95;52.22;100060.50;4376407;32;34394;-67
2022/05/16 02:43:11;;;;;;;4.95;2.58;;;;;;;16.88;52.40;100065.44;4377197;32;34171;-67
2022/05/16 02:45:39;;;;;;;3.72;2.70;;;;;;;17.33;51.75;100066.25;4376966;32;34639;-66
2022/05/16 02:48:07;;;;;;;3.40;2.60;;;;;;;17.19;51.56;100067.97;4377186;32;34152;-68
2022/05/16 02:50:34;;;;;;;5.45;2.50;;;;;;;17.16;51.88;100060.34;4376841;32;34117;-66
2022/05/16 02:53:02;;;;;;;5.40;2.80;;;;;;;17.29;51.62;100058.88;4377055;32;33715;-67
2022/05/16 02:55:31;;;;;;;4.25;2.80;;;;;;;16.46;53.88;100065.88;4377175;32;35058;-67
2022/05/16 02:57:59;;;;;;;4.40;3.00;;;;;;;16.76;52.99;100062.19;4377082;32;33824;-67
2022/05/16 03:00:27;;;;;;;3.87;2.70;;;;;;;16.59;53.34;100059.81;4376811;32;34017;-67
2022/05/16 03:02:54;;;;;;;4.25;3.15;;;;;;;16.85;52.28;100059.72;4377149;32;33541;-67
2022/05/16 03:05:22;;;;;;;4.60;2.78;;;;;;;16.53;53.28;100058.22;4376912;32;33805;-68
2022/05/16 03:07:49;;;;;;;5.10;2.87;;;;;;;17.11;51.71;100054.91;4370821;32;34287;-67
2022/05/16 03:10:17;;;;;;;4.18;2.87;;;;;;;16.63;52.45;100058.16;4376731;32;33926;-69
2022/05/16 03:12:45;;;;;;;4.90;3.05;;;;;;;16.45;53.02;100062.34;4377320;32;33656;-73
2022/05/16 03:15:15;;;;;;;3.53;2.70;;;;;;;16.17;53.66;100058.31;4376683;32;33638;-68
2022/05/16 03:17:43;;;;;;;3.83;2.83;;;;;;;15.30;56.34;100061.13;4377468;32;34262;-67
2022/05/16 03:20:13;;;;;;;4.97;2.70;;;;;;;16.15;54.25;100055.03;4376940;32;34889;-67
2022/05/16 03:22:41;;;;;;;5.40;2.80;;;;;;;16.78;53.58;100059.97;4377018;32;33659;-67
2022/05/16 03:25:09;;;;;;;3.97;3.03;;;;;;;16.85;53.55;100054.25;4377021;32;34107;-67
2022/05/16 03:27:37;;;;;;;3.83;2.80;;;;;;;16.55;53.40;100053.28;4376924;32;34330;-69
2022/05/16 03:30:07;;;;;;;3.90;2.90;;;;;;;16.71;53.80;100054.81;4376520;32;33461;-68
2022/05/16 03:32:35;;;;;;;5.00;3.00;;;;;;;16.89;53.69;100056.12;4376872;32;34168;-67
2022/05/16 03:35:04;;;;;;;3.95;2.85;;;;;;;17.33;52.15;100055.28;4363164;32;34351;-67
2022/05/16 03:37:31;;;;;;;4.53;2.70;;;;;;;17.63;51.66;100050.63;4376890;32;34389;-67
2022/05/16 03:42:45;;;;;;;3.58;2.72;;;;;;;18.16;51.27;100069.91;4376979;32;33178;-66
2022/05/16 03:45:15;;;;;;;4.15;2.97;;;;;;;18.47;50.97;100061.31;4376777;32;34875;-67
2022/05/16 03:47:42;;;;;;;4.12;2.78;;;;;;;18.55;49.93;100062.56;4376804;32;34369;-67
2022/05/16 03:50:11;;;;;;;3.95;2.70;;;;;;;18.51;50.11;100053.28;4376385;32;34640;-67
2022/05/16 03:52:38;;;;;;;3.65;2.50;;;;;;;18.52;50.16;100058.47;4376699;32;32918;-67
2022/05/16 03:55:13;;;;;;;4.00;3.00;;;;;;;18.94;49.00;100062.38;4376399;32;34027;-67
2022/05/16 03:57:42;;;;;;;5.65;2.95;;;;;;;18.30;50.66;100064.53;4376903;32;34317;-72
2022/05/16 04:00:13;;;;;;;4.57;2.87;;;;;;;18.30;51.46;100070.03;4376528;32;34770;-66
2022/05/16 04:02:40;;;;;;;5.43;3.17;;;;;;;18.51;51.04;100070.59;4376175;32;34418;-66
2022/05/16 04:08:11;;;;;;;5.20;3.20;;;;;;;18.65;50.88;100067.94;5100027;27;21138;-66
2022/05/16 04:10:42;;;;;;;5.45;3.35;;;;;;;18.77;51.02;100070.28;4376248;32;34554;-67
2022/05/16 04:13:09;;;;;;;4.97;3.00;;;;;;;18.97;50.93;100075.50;4376449;32;33587;-67
2022/05/16 04:15:37;;;;;;;6.05;3.03;;;;;;;19.21;49.86;100082.88;4375801;32;34210;-67
2022/05/16 04:18:04;;;;;;;5.45;2.70;;;;;;;19.09;49.40;100085.22;4376744;32;35190;-69
2022/05/16 04:20:32;;;;;;;3.65;2.62;;;;;;;19.14;49.23;100097.00;4376371;32;34676;-67
2022/05/16 04:22:59;;;;;;;5.32;2.75;;;;;;;19.30;48.54;100083.81;4376660;32;33572;-70
2022/05/16 04:25:27;;;;;;;5.15;2.87;;;;;;;20.21;46.44;100091.63;4376716;32;34750;-67
2022/05/16 04:27:55;;;;;;;4.00;2.85;;;;;;;20.10;46.17;100092.94;4375719;32;35137;-67
2022/05/16 04:30:23;;;;;;;4.07;2.50;;;;;;;19.60;46.41;100090.75;4369892;32;34375;-69
2022/05/16 04:32:50;;;;;;;4.22;2.60;;;;;;;19.81;47.11;100094.03;4373390;32;33223;-69
2022/05/16 04:35:18;;;;;;;2.78;2.20;;;;;;;19.88;45.46;100088.94;4371787;32;33966;-69
2022/05/16 04:37:46;;;;;;;5.28;2.50;;;;;;;19.06;45.47;100084.72;4375939;32;34353;-69
2022/05/16 04:40:14;;;;;;;4.35;2.15;;;;;;;19.39;46.76;100090.25;4375342;32;34507;-69
2022/05/16 04:42:42;;;;;;;2.83;2.22;;;;;;;19.44;45.21;100086.66;4374356;32;33887;-70
2022/05/16 04:45:20;;;;;;;4.10;2.30;;;;;;;19.52;46.08;100096.12;4361756;32;34592;-71
2022/05/16 04:47:52;;;;;;;4.80;2.42;;;;;;;19.84;43.41;100087.91;4357899;32;35299;-71
2022/05/16 04:50:26;;;;;;;5.18;2.10;;;;;;;19.10;43.14;100090.44;4360367;32;33655;-70
2022/05/16 04:52:54;;;;;;;4.13;2.30;;;;;;;19.36;45.33;100093.63;4346850;32;33381;-72
2022/05/16 04:55:22;;;;;;;3.35;2.20;;;;;;;19.38;42.00;100099.66;4360308;32;34896;-70
2022/05/16 04:57:50;;;;;;;4.95;2.30;;;;;;;19.65;41.76;100096.19;4346497;32;34284;-74
2022/05/16 05:00:20;;;;;;;4.37;2.03;;;;;;;20.14;41.94;100099.47;4359591;32;34020;-70
2022/05/16 05:02:48;;;;;;;5.57;2.25;;;;;;;20.90;39.98;100094.37;4342916;32;33448;-70
2022/05/16 05:05:22;;;;;;;3.10;2.20;;;;;;;21.16;39.93;100101.28;4357780;32;33509;-71
2022/05/16 05:07:49;;;;;;;4.45;2.37;;;;;;;21.28;40.71;100101.56;4360083;32;35206;-69
2022/05/16 05:16:08;;;;;;;3.37;1.92;;;;;;;22.06;35.36;100104.87;4360296;32;33795;-69
2022/05/16 05:18:38;;;;;;;7.22;2.30;;;;;;;21.45;36.00;100101.72;4346693;32;34315;-69
2022/05/16 05:21:06;;;;;;;2.40;1.90;;;;;;;21.73;35.39;100100.75;4360425;32;34696;-69
2022/05/16 05:23:34;;;;;;;5.00;1.90;;;;;;;22.62;34.00;100104.47;4360602;32;33095;-69
2022/05/16 05:26:04;;;;;;;6.22;2.12;;;;;;;22.11;33.71;100099.19;4360652;32;33905;-69
2022/05/16 05:28:32;;;;;;;3.03;2.08;;;;;;;21.81;35.25;100098.06;4362168;32;35051;-69
2022/05/16 05:31:00;;;;;;;2.97;1.70;;;;;;;21.87;36.18;100105.09;4353973;32;34726;-68
2022/05/16 05:33:28;;;;;;;3.55;2.00;;;;;;;22.23;33.69;100100.59;4362042;32;34216;-68
2022/05/16 05:35:56;;;;;;;4.50;1.98;;;;;;;21.62;35.48;100109.31;4348810;32;34918;-68
2022/05/16 05:38:24;;;;;;;4.05;2.20;;;;;;;21.25;35.27;100105.75;4357560;32;34190;-70
2022/05/16 05:40:51;;;;;;;5.40;2.45;;;;;;;20.66;35.71;100107.59;4362316;32;33539;-67
2022/05/16 05:43:19;;;;;;;5.65;2.47;;;;;;;20.94;35.99;100111.13;4361900;32;33371;-67
2022/05/16 05:45:46;;;;;;;3.85;2.10;;;;;;;;;;4361621;32;35065;-67
2022/05/16 05:48:14;;;;;;;4.47;2.10;;;;;;;21.86;34.39;100113.72;4361688;32;35355;-68
2022/05/16 05:50:41;;;;;;;5.60;2.12;;;;;;;22.07;34.28;100122.25;4361624;32;34126;-66
2022/05/16 05:53:10;;;;;;;3.25;2.00;;;;;;;22.67;33.68;100110.66;4361357;32;33214;-66
2022/05/16 05:55:39;;;;;;;3.65;2.00;;;;;;;22.86;32.44;100117.88;4361889;32;33610;-67
2022/05/16 05:58:06;;;;;;;3.70;1.95;;;;;;;22.90;32.00;100113.34;4361413;32;34928;-70
2022/05/16 06:00:34;;;;;;;3.28;1.98;;;;;;;22.73;32.34;100116.88;4360952;32;33751;-70
2022/05/16 06:03:01;;;;;;;3.20;1.77;;;;;;;22.49;32.58;100117.28;4361775;32;33555;-68
2022/05/16 06:05:29;;;;;;;2.20;1.80;;;;;;;22.52;32.27;100122.97;4359838;32;35125;-66
2022/05/16 06:07:56;;;;;;;3.25;1.87;;;;;;;22.20;32.86;100123.31;4361033;32;33784;-68
2022/05/16 06:10:24;;;;;;;3.00;1.62;;;;;;;21.44;34.35;100127.69;4359716;32;33704;-71
2022/05/16 06:12:53;;;;;;;3.08;1.70;;;;;;;22.47;33.59;100128.66;4346319;33;34175;-70
2022/05/16 06:15:22;;;;;;;2.85;1.80;;;;;;;23.00;31.93;100124.13;4346453;33;33657;-71
2022/05/16 06:17:50;;;;;;;2.03;1.42;;;;;;;23.20;31.81;100127.41;4347830;33;34223;-69
2022/05/16 06:20:17;;;;;;;2.95;1.50;;;;;;;22.84;32.31;100120.97;4347333;33;34611;-68
2022/05/16 06:22:45;;;;;;;3.45;2.00;;;;;;;23.22;30.78;100123.19;4347123;33;33814;-68
2022/05/16 06:25:31;;;;;;;2.58;1.50;;;;;;;23.41;30.36;100125.63;4347259;33;33807;-71
2022/05/16 06:28:07;;;;;;;2.47;1.40;;;;;;;22.80;30.60;100122.75;4347563;33;34494;-73
2022/05/16 06:30:36;;;;;;;3.05;1.60;;;;;;;22.57;32.77;100119.28;4333895;33;34747;-86
2022/05/16 06:33:05;;;;;;;3.42;1.30;;;;;;;22.80;30.80;100127.47;4334079;33;33988;-76
2022/05/16 06:35:33;;;;;;;2.35;1.40;;;;;;;22.87;31.71;100119.50;4347821;33;33615;-79
2022/05/16 06:38:09;;;;;;;1.98;1.58;;;;;;;22.47;31.82;100114.84;4346953;33;34999;-74
2022/05/16 06:40:39;;;;;;;4.00;1.67;;;;;;;22.46;32.32;100110.47;4333581;33;34456;-78
2022/05/16 06:43:07;;;;;;;4.12;1.65;;;;;;;22.85;30.89;100106.00;4347284;33;33409;-76
2022/05/16 06:45:36;;;;;;;3.90;1.73;;;;;;;23.43;30.17;100117.78;4347705;33;33478;-72
2022/05/16 06:48:04;;;;;;;3.22;1.77;;;;;;;24.37;28.85;100117.16;4333859;33;35016;-72
2022/05/16 06:50:33;;;;;;;3.33;1.90;;;;;;;24.31;29.48;100119.28;4347009;33;33770;-80
2022/05/16 06:53:00;;;;;;;3.03;1.75;;;;;;;24.34;30.36;100126.09;4347173;33;33363;-73
2022/05/16 06:55:28;;;;;;;6.40;1.87;;;;;;;24.10;29.37;100118.37;4330946;33;33982;-77
2022/05/16 06:57:56;;;;;;;5.30;1.70;;;;;;;24.99;28.45;100118.47;4347654;33;35221;-76
2022/05/16 07:00:26;;;;;;;7.45;1.83;;;;;;;25.48;27.47;100123.50;4334081;33;33746;-78
2022/05/16 07:02:53;;;;;;;1.98;1.50;;;;;;;25.26;27.83;100119.13;4347255;33;34438;-78
2022/05/16 07:05:41;;;;;;;2.75;1.52;;;;;;;26.24;26.22;100121.47;4346561;33;33760;-74
2022/05/16 07:08:09;;;;;;;3.95;1.73;;;;;;;25.72;26.97;100120.84;4348123;32;34081;-74
2022/05/16 07:10:37;;;;;;;2.87;1.73;;;;;;;25.28;27.91;100120.41;4360903;32;34720;-78
2022/05/16 07:13:05;;;;;;;3.10;1.45;;;;;;;25.40;29.04;100129.94;4346439;32;33614;-80
2022/05/16 07:15:32;;;;;;;3.90;1.90;;;;;;;25.06;28.75;100123.50;4346860;33;34228;-73
2022/05/16 07:18:00;;;;;;;3.05;1.83;;;;;;;25.33;28.08;100128.53;4345482;32;34062;-78
2022/05/16 07:20:27;;;;;;;4.55;2.30;;;;;;;25.35;28.20;100119.88;4346487;33;34011;-74
2022/05/16 07:22:58;;;;;;;4.93;1.77;;;;;;;25.20;29.87;100126.03;4351777;32;33447;-66
2022/05/16 07:25:27;;;;;;;2.58;1.75;;;;;;;24.88;29.54;100125.56;4361625;32;34693;-65
2022/05/16 07:27:59;;;;;;;3.87;1.67;;;;;;;25.45;27.89;100132.53;4361743;32;34196;-67
2022/05/16 07:30:29;;;;;;;2.85;1.55;;;;;;;24.45;30.20;100138.50;4361417;32;33517;-65
2022/05/16 07:32:58;;;;;;;4.75;1.90;;;;;;;24.00;30.26;100125.09;4361288;32;33162;-64
2022/05/16 07:35:28;;;;;;;7.82;1.90;;;;;;;24.19;30.12;100126.66;4361482;32;34034;-64
2022/05/16 07:37:56;;;;;;;2.72;1.70;;;;;;;24.23;30.12;100127.63;4361412;32;35167;-64
2022/05/16 07:40:28;;;;;;;2.58;1.30;;;;;;;24.45;29.74;100132.09;4361188;32;34773;-64
2022/05/16 07:42:55;;;;;;;4.60;1.70;;;;;;;24.51;30.02;100125.25;4361594;32;33323;-64
2022/05/16 07:45:23;;;;;;;1.80;1.37;;;;;;;23.93;31.97;100122.84;4362169;32;33698;-64
2022/05/16 07:47:51;;;;;;;3.17;1.70;;;;;;;24.16;29.98;100122.59;4361304;32;35103;-64
2022/05/16 07:50:23;;;;;;;2.25;1.60;;;;;;;24.37;29.64;100136.56;4361746;32;33551;-64
2022/05/16 07:52:51;;;;;;;2.37;1.65;;;;;;;24.21;29.78;100130.75;4361731;32;34161;-64
2022/05/16 07:55:23;;;;;;;3.03;1.55;;;;;;;24.01;30.26;100125.91;4360958;32;34068;-64
2022/05/16 07:57:52;;;;;;;2.83;1.62;;;;;;;24.22;28.79;100140.69;4361731;32;34010;-65
2022/05/16 08:00:21;;;;;;;3.97;1.50;;;;;;;23.98;28.17;100132.13;4361176;32;34436;-65
2022/05/16 08:02:50;;;;;;;3.15;1.70;;;;;;;24.22;28.75;100129.59;4361685;32;33578;-64
2022/05/16 08:05:18;;;;;;;7.05;1.95;;;;;;;24.49;27.57;100138.66;4361119;32;34069;-64
2022/05/16 08:10:34;;;;;;;2.33;1.37;;;;;;;23.90;28.54;100136.53;4359901;32;33921;-64
2022/05/16 08:13:04;;;;;;;3.62;1.70;;;;;;;24.88;28.42;100134.72;4360635;32;33510;-63
2022/05/16 08:15:33;;;;;;;3.37;1.83;;;;;;;24.24;28.75;100132.84;4361230;32;34220;-65
2022/05/16 08:18:02;;;;;;;3.05;1.60;;;;;;;25.29;26.63;100143.44;4358944;32;34230;-66
2022/05/16 08:20:30;;;;;;;3.03;1.80;;;;;;;25.04;27.65;100136.91;4361067;32;34051;-69
2022/05/16 08:22:58;;;;;;;3.40;1.70;;;;;;;25.45;27.68;100138.91;4349773;32;34407;-64
2022/05/16 08:25:25;;;;;;;2.15;1.52;;;;;;;25.36;26.84;100130.62;4346930;33;33773;-64
2022/05/16 08:27:53;;;;;;;2.45;1.87;;;;;;;25.76;26.91;100127.31;4350024;32;34988;-65
2022/05/16 08:30:22;;;;;;;2.80;1.75;;;;;;;26.26;24.98;100131.06;4361359;32;34340;-64
2022/05/16 08:32:50;;;;;;;2.85;1.40;;;;;;;25.87;26.40;100136.06;4361625;32;33504;-66
2022/05/16 08:35:19;;;;;;;2.95;1.70;;;;;;;25.49;27.56;100125.97;4361560;32;33911;-63
2022/05/16 08:41:01;;;;;;;3.75;1.80;;;;;;;24.28;28.35;100133.81;4359425;32;33999;-66
2022/05/16 08:43:49;;;;;;;3.65;1.85;;;;;;;25.40;27.23;100135.50;4347960;32;33500;-65
2022/05/16 08:46:41;;;;;;;3.22;1.75;;;;;;;25.87;26.20;100133.28;4362013;32;34154;-68
2022/05/16 08:49:36;;;;;;;3.92;2.05;;;;;;;25.80;26.45;100135.81;4361109;32;34272;-64
2022/05/16 08:52:10;;;;;;;2.80;1.80;;;;;;;26.56;27.64;100125.34;4361182;32;33463;-64
2022/05/16 08:54:44;;;;;;;3.20;1.70;;;;;;;26.24;26.42;100130.62;4347855;32;34366;-64
2022/05/16 08:57:17;;;;;;;3.00;1.77;;;;;;;25.63;25.86;100133.19;4347822;32;34158;-63
2022/05/16 08:59:54;;;;;;;3.45;2.10;;;;;;;25.53;26.17;100128.87;4347449;32;34889;-64
2022/05/16 09:02:24;;;;;;;2.45;1.60;;;;;;;25.48;26.60;100131.84;4347303;32;34513;-64
2022/05/16 09:05:15;;;;;;;2.53;1.83;;;;;;;25.49;28.03;100134.28;4345685;32;33552;-63
2022/05/16 09:07:49;;;;;;;4.62;1.77;;;;;;;24.97;28.28;100134.66;4347208;32;33734;-65
2022/05/16 09:10:21;;;;;;;5.20;1.70;;;;;;;25.97;29.23;100135.66;4340755;32;34317;-67
2022/05/16 09:13:08;;;;;;;2.62;1.60;;;;;;;26.38;28.82;100133.88;4360337;32;34559;-67
2022/05/16 09:15:46;;;;;;;2.92;1.80;;;;;;;26.58;26.89;100131.38;4347136;32;33711;-64
2022/05/16 09:18:29;;;;;;;2.90;1.95;;;;;;;26.11;26.53;100126.19;4347351;32;35262;-64
2022/05/16 09:21:08;;;;;;;1.83;1.60;;;;;;;25.86;27.46;100126.09;4346762;32;35057;-64
2022/05/16 09:24:05;;;;;;;3.53;1.90;;;;;;;25.75;28.00;100120.16;4360575;32;34869;-65
2022/05/16 09:26:35;;;;;;;2.28;1.60;;;;;;;25.70;27.91;100122.31;4360705;32;33598;-63
2022/05/16 09:29:22;;;;;;;2.70;2.00;;;;;;;25.88;27.46;100117.44;4358882;32;33818;-66
2022/05/16 09:31:52;;;;;;;4.80;1.90;;;;;;;25.83;27.53;100115.69;4339825;33;34236;-67
2022/05/16 09:34:27;;;;;;;2.85;2.03;;;;;;;26.10;28.78;100111.47;4345673;33;34194;-66
2022/05/16 09:36:55;;;;;;;4.72;2.30;;;;;;;26.46;28.11;100111.84;4345707;33;34219;-64
2022/05/16 09:39:31;;;;;;;2.75;1.95;;;;;;;26.35;26.65;100104.00;4347225;32;34540;-63
2022/05/16 09:42:12;;;;;;;3.70;2.15;;;;;;;26.21;26.98;100105.47;4347317;32;34524;-64
2022/05/16 09:45:03;;;;;;;2.35;1.80;;;;;;;25.96;28.05;100102.63;4346480;32;34032;-64
2022/05/16 09:47:32;;;;;;;4.85;2.00;;;;;;;25.86;27.86;100100.28;4360254;32;34344;-66
2022/05/16 09:50:03;;;;;;;2.90;1.70;;;;;;;26.21;28.56;100092.38;4359774;32;34172;-66
2022/05/16 09:52:35;;;;;;;3.03;2.03;;;;;;;26.51;28.44;100087.41;4360064;32;34984;-65
2022/05/16 09:55:10;;;;;;;3.33;2.10;;;;;;;25.95;27.37;100087.94;4359476;32;34182;-63
2022/05/16 09:57:55;;;;;;;3.58;2.00;;;;;;;25.97;27.70;100087.59;4359949;32;33973;-64
2022/05/16 10:00:31;;;;;;;3.80;1.98;;;;;;;26.61;27.48;100088.97;4344782;33;33811;-64
2022/05/16 10:03:20;;;;;;;5.78;1.90;;;;;;;26.61;27.17;100083.38;4356025;32;34958;-65
2022/05/16 10:05:51;;;;;;;5.93;2.60;;;;;;;27.03;27.98;100085.88;4351148;32;34961;-64
2022/05/16 10:08:25;;;;;;;3.20;1.77;;;;;;;26.72;26.95;100083.72;4360390;32;34182;-63
2022/05/16 10:10:53;;;;;;;4.85;2.22;;;;;;;25.92;28.45;100076.69;4359684;32;34122;-66
2022/05/16 10:13:21;;;;;;;5.00;1.85;;;;;;;26.17;27.34;100080.31;4346041;32;35173;-67
2022/05/16 10:15:53;;;;;;;3.53;1.75;;;;;;;26.57;27.51;100074.91;4348405;32;33818;-67
2022/05/16 10:18:22;;;;;;;3.10;1.75;;;;;;;26.62;26.93;100076.66;4346884;32;33489;-66
2022/05/16 10:21:03;;;;;;;3.03;1.77;;;;;;;27.54;27.46;100074.25;4361900;32;34814;-65
2022/05/16 10:23:38;;;;;;;3.47;1.83;;;;;;;27.82;25.56;100077.00;4348398;32;34254;-71
2022/05/16 10:26:23;;;;;;;3.47;1.67;;;;;;;27.86;26.40;100077.91;4349042;32;34645;-69
2022/05/16 10:28:56;;;;;;;6.65;1.77;;;;;;;27.74;26.40;100075.19;4348378;32;33767;-65
2022/05/16 10:34:21;;;;;;;3.33;1.70;;;;;;;27.37;27.30;100076.16;4350979;32;33916;-66
2022/05/16 10:36:51;;;;;;;3.47;1.80;;;;;;;28.08;25.61;100079.31;4329824;32;34055;-68
2022/05/16 10:39:23;;;;;;;1.67;1.58;;;;;;;27.70;26.06;100075.06;4345655;32;33503;-66
2022/05/16 10:42:05;;;;;;;2.25;1.80;;;;;;;27.74;25.36;100080.75;4346992;33;34927;-66
2022/05/16 10:44:46;;;;;;;3.85;1.80;;;;;;;27.68;25.15;100073.81;4347119;33;33841;-66
2022/05/16 10:47:19;;;;;;;3.80;1.98;;;;;;;27.67;25.03;100077.75;4347167;33;34172;-71
2022/05/16 10:50:08;;;;;;;5.82;2.22;;;;;;;27.58;25.25;100077.91;4333640;33;34246;-66
2022/05/16 10:52:42;;;;;;;4.00;1.90;;;;;;;27.79;24.05;100066.53;4345417;33;34120;-66
2022/05/16 10:55:10;;;;;;;3.03;1.90;;;;;;;27.40;26.55;100069.06;4346898;33;33963;-66
2022/05/16 10:57:49;;;;;;;3.20;2.15;;;;;;;28.29;26.14;100059.47;4334018;33;34826;-66
2022/05/16 11:00:25;;;;;;;2.22;1.60;;;;;;;27.34;25.75;100050.97;4346782;33;33361;-71
2022/05/16 11:03:11;;;;;;;3.87;1.98;;;;;;;27.06;27.09;100050.94;4347171;33;34832;-69
2022/05/16 11:06:04;;;;;;;4.78;2.15;;;;;;;27.97;24.18;100059.50;4346850;32;34059;-66
2022/05/16 11:08:37;;;;;;;3.53;2.17;;;;;;;26.48;26.46;100051.94;4347181;33;34124;-67
2022/05/16 11:11:40;;;;;;;2.08;1.77;;;;;;;26.78;26.11;100049.72;4333058;33;33911;-66
2022/05/16 11:14:17;;;;;;;3.40;1.83;;;;;;;27.25;25.64;100048.34;4346312;32;34085;-65
2022/05/16 11:16:50;;;;;;;3.45;1.95;;;;;;;27.56;25.16;100053.19;4333960;33;35179;-68
2022/05/16 11:19:49;;;;;;;3.12;1.92;;;;;;;27.63;25.59;100052.59;4333531;33;33930;-67
2022/05/16 11:22:44;;;;;;;3.75;2.03;;;;;;;26.89;26.92;100040.87;4345319;33;34445;-67
2022/05/16 11:25:16;;;;;;;4.00;2.33;;;;;;;27.20;26.09;100043.81;4342272;33;34455;-67
2022/05/16 11:27:56;;;;;;;1.80;1.70;;;;;;;28.00;25.50;100039.25;4333352;33;35022;-67
2022/05/16 11:30:42;;;;;;;5.10;2.30;;;;;;;27.41;25.67;100031.69;4345490;33;34656;-67
2022/05/16 11:33:28;;;;;;;4.68;2.03;;;;;;;27.56;25.09;100035.66;4346529;33;33603;-67
2022/05/16 11:36:02;;;;;;;3.55;1.73;;;;;;;27.46;25.57;100028.62;4346937;33;34450;-67
2022/05/16 11:38:36;;;;;;;;;;;;;;;27.81;26.27;100030.75;4331976;32;34763;-67
2022/05/16 11:41:23;;;;;;;2.83;2.10;;;;;;;28.33;26.91;100026.91;4348449;32;34341;-68
2022/05/16 11:44:10;;;;;;;4.72;2.08;;;;;;;28.67;25.23;100029.31;4360797;32;33500;-68
2022/05/16 11:46:43;;;;;;;4.03;2.10;;;;;;;28.99;24.84;100018.84;4346786;32;33993;-68
2022/05/16 11:49:54;;;;;;;2.72;2.12;;;;;;;29.05;25.81;100009.00;4361241;32;34367;-68
2022/05/16 11:52:53;;;;;;;3.05;2.05;;;;;;;29.15;26.73;100011.19;4360929;32;34729;-67
2022/05/16 12:01:04;;;;;;;2.90;2.08;;;;;;;28.81;27.35;100010.88;4360792;32;34303;-67
2022/05/16 12:03:39;;;;;;;2.83;2.20;;;;;;;29.90;24.10;100000.66;4360815;32;34172;-68
2022/05/16 12:06:26;;;;;;;2.90;1.90;;;;;;;29.95;24.99;99994.72;4361382;32;33698;-68
2022/05/16 12:09:19;;;;;;;3.25;1.95;;;;;;;30.32;25.79;99998.94;4360480;32;33596;-68
2022/05/16 12:11:58;;;;;;;3.37;1.98;;;;;;;30.17;24.88;99997.88;4350981;32;34289;-68
2022/05/16 12:14:34;;;;;;;3.95;2.05;;;;;;;30.01;24.10;99986.84;4346913;32;34518;-68
2022/05/16 12:17:08;;;;;;;2.55;2.03;;;;;;;30.27;25.31;99991.63;4347915;32;33447;-68
2022/05/16 12:19:40;;;;;;;2.83;1.77;;;;;;;30.17;25.27;99986.69;4361077;32;34742;-67